Trade Lake, Wisconsin
Current Conditions -  °F | °C
As of 7:35 AM on Wednesday 22 Oct 2014 (Local Time) from KRZN Reporting Station
Clear Clear  
Wind Chill: 34°   Ceiling: Unl
Heat Index: 40°   Visibility: 10mi
Dew Point: 35°   Wind: 10mph
Humidity: 80%   Direction: 160°SSE
Pressure: 30.22"   Gusts: NA
Location:  45.6678°N, 92.363°W
Report Text: KRZN 221235Z AUTO 16009KT 10SM CLR 05/01 A3022 RMK AO2 T00450014
Loading
Personal Weather Stations






























Interactive Weather Map
Tropical Storm Tracking
New forecast layout! Learn more

10-Day Weather Forecast

Advertisements
Track Severe Weather on mobile